createdAt,value
2018-09-15T00:02:13.291Z,75.02
2018-09-15T00:04:42.571Z,74.01
2018-09-15T00:07:12.107Z,74.29
2018-09-15T00:09:41.579Z,73.83
2018-09-15T00:12:11.563Z,74.16
2018-09-15T00:14:41.238Z,74.75
2018-09-15T00:17:11.859Z,74.57
2018-09-15T00:19:41.760Z,74.21
2018-09-15T00:22:11.179Z,74.65
2018-09-15T00:24:40.840Z,74.77
2018-09-15T00:27:10.411Z,75.34
2018-09-15T00:29:39.877Z,75.50
2018-09-15T00:32:09.921Z,73.44
2018-09-15T00:34:39.696Z,73.57
2018-09-15T00:37:09.417Z,72.05
2018-09-15T00:39:39.224Z,72.69
2018-09-15T00:42:08.633Z,71.85
2018-09-15T00:44:56.341Z,71.94
2018-09-15T00:47:36.918Z,70.87
2018-09-15T00:50:06.551Z,70.97
2018-09-15T00:52:37.771Z,71.36
2018-09-15T00:55:07.020Z,71.33
2018-09-15T00:57:48.878Z,71.16
2018-09-15T01:00:34.765Z,71.32
2018-09-15T01:03:06.847Z,71.10
2018-09-15T01:05:37.437Z,71.46
2018-09-15T01:08:09.380Z,70.93
2018-09-15T01:10:42.223Z,70.52
2018-09-15T01:13:21.383Z,70.20
2018-09-15T01:15:52.679Z,70.55
2018-09-15T01:18:28.112Z,70.06
2018-09-15T01:21:00.726Z,70.55
2018-09-15T01:23:31.214Z,70.32
2018-09-15T01:26:04.932Z,71.17
2018-09-15T01:28:36.019Z,71.03
2018-09-15T01:31:07.857Z,71.10
2018-09-15T01:33:43.263Z,71.44
2018-09-15T01:36:14.646Z,70.95
2018-09-15T01:38:51.530Z,70.87
2018-09-15T01:41:21.746Z,71.48
2018-09-15T01:43:52.066Z,71.36
2018-09-15T01:46:22.928Z,71.33
2018-09-15T01:49:00.284Z,71.03
2018-09-15T01:51:30.648Z,71.10
2018-09-15T01:54:00.907Z,72.24
2018-09-15T01:56:43.110Z,72.57
2018-09-15T01:59:19.334Z,72.73
2018-09-15T02:01:52.807Z,72.72
2018-09-15T02:04:22.495Z,72.63
2018-09-15T02:06:51.977Z,72.98
2018-09-15T02:09:21.236Z,73.63
2018-09-15T02:11:50.571Z,73.76
2018-09-15T02:14:20.115Z,74.78
2018-09-15T02:16:49.620Z,74.68
2018-09-15T02:19:19.089Z,74.43
2018-09-15T02:21:48.626Z,74.54
2018-09-15T02:24:18.918Z,75.30
2018-09-15T02:26:48.780Z,75.30
2018-09-15T02:29:18.178Z,76.12
2018-09-15T02:31:48.091Z,75.96
2018-09-15T02:34:17.551Z,76.93
2018-09-15T02:36:47.115Z,77.07
2018-09-15T02:39:16.607Z,77.35
2018-09-15T02:41:46.104Z,78.04
2018-09-15T02:44:15.567Z,77.70
2018-09-15T02:46:45.279Z,77.56
2018-09-15T02:49:14.589Z,78.26
2018-09-15T02:51:44.121Z,79.05
2018-09-15T02:54:13.802Z,79.25
2018-09-15T02:56:43.254Z,79.27
2018-09-15T02:59:12.506Z,79.13
2018-09-15T03:01:42.095Z,79.96
2018-09-15T03:04:11.610Z,78.89
2018-09-15T03:06:41.563Z,79.54
2018-09-15T03:09:12.510Z,79.48
2018-09-15T03:11:42.321Z,80.16
2018-09-15T03:14:11.563Z,80.01
2018-09-15T03:16:40.986Z,80.37
2018-09-15T03:19:10.279Z,81.32
2018-09-15T03:21:39.817Z,81.41
2018-09-15T03:24:09.298Z,80.63
2018-09-15T03:26:39.282Z,80.61
2018-09-15T03:29:08.730Z,80.97
2018-09-15T03:31:38.308Z,80.83
2018-09-15T03:34:08.727Z,81.70
2018-09-15T03:36:38.887Z,82.09
2018-09-15T03:39:10.516Z,82.42
2018-09-15T03:41:39.864Z,82.42
2018-09-15T03:44:09.742Z,83.61
2018-09-15T03:46:39.164Z,83.51
2018-09-15T03:49:08.702Z,84.14
2018-09-15T03:51:38.150Z,84.04
2018-09-15T03:54:07.822Z,85.44
2018-09-15T03:56:37.716Z,85.89
2018-09-15T03:59:07.495Z,86.29
2018-09-15T04:01:37.015Z,86.31
2018-09-15T04:04:07.342Z,87.08
2018-09-15T04:06:37.376Z,86.89
2018-09-15T04:09:09.841Z,86.92
2018-09-15T04:11:39.689Z,86.78
2018-09-15T04:14:09.790Z,87.05
2018-09-15T04:16:39.421Z,86.97
2018-09-15T04:19:08.905Z,87.28
2018-09-15T04:21:38.431Z,87.28
2018-09-15T04:24:08.115Z,86.69
2018-09-15T04:26:37.818Z,86.60
2018-09-15T04:29:07.261Z,87.53
2018-09-15T04:31:37.458Z,87.20
2018-09-15T04:34:07.140Z,87.58
2018-09-15T04:36:37.250Z,87.31
2018-09-15T04:39:09.836Z,87.36
2018-09-15T04:41:39.595Z,87.01
2018-09-15T04:44:09.499Z,87.67
2018-09-15T04:46:39.575Z,87.56
2018-09-15T04:49:09.300Z,87.46
2018-09-15T04:51:39.029Z,86.78
2018-09-15T04:54:08.791Z,87.02
2018-09-15T04:56:38.362Z,86.66
2018-09-15T04:59:07.929Z,87.19
2018-09-15T05:01:37.392Z,87.22
2018-09-15T05:04:07.135Z,86.96
2018-09-15T05:06:37.439Z,87.25
2018-09-15T05:09:10.463Z,87.29
2018-09-15T05:11:40.612Z,87.60
2018-09-15T05:14:10.494Z,87.07
2018-09-15T05:16:39.963Z,86.83
2018-09-15T05:19:09.477Z,86.47
2018-09-15T05:21:38.974Z,86.98
2018-09-15T05:24:08.501Z,86.81
2018-09-15T05:26:37.981Z,86.24
2018-09-15T05:29:07.874Z,86.36
2018-09-15T05:31:37.400Z,86.66
2018-09-15T05:34:07.390Z,86.44
2018-09-15T05:36:37.039Z,86.13
2018-09-15T05:39:11.512Z,85.99
2018-09-15T05:41:41.171Z,85.73
2018-09-15T05:44:11.035Z,86.00
2018-09-15T05:46:41.196Z,86.05
2018-09-15T05:49:10.730Z,85.75
2018-09-15T05:51:40.552Z,85.57
2018-09-15T05:54:09.948Z,86.33
2018-09-15T05:56:39.439Z,86.15
2018-09-15T05:59:08.957Z,85.68
2018-09-15T06:01:38.672Z,85.27
2018-09-15T06:04:08.751Z,86.01
2018-09-15T06:06:38.517Z,85.88
2018-09-15T06:09:10.578Z,86.61
2018-09-15T06:11:40.893Z,87.10
2018-09-15T06:14:10.294Z,87.45
2018-09-15T06:16:39.743Z,87.83
2018-09-15T06:19:10.210Z,88.11
2018-09-15T06:21:39.431Z,88.35
2018-09-15T06:24:09.519Z,88.00
2018-09-15T06:26:39.273Z,86.92
2018-09-15T06:29:08.738Z,86.11
2018-09-15T06:31:38.302Z,86.12
2018-09-15T06:34:08.269Z,84.96
2018-09-15T06:36:37.919Z,85.82
2018-09-15T06:39:09.778Z,85.60
2018-09-15T06:41:39.797Z,85.02
2018-09-15T06:44:09.455Z,84.90
2018-09-15T06:46:38.970Z,81.88
2018-09-15T06:49:08.491Z,82.80
2018-09-15T06:51:37.734Z,82.58
2018-09-15T06:54:07.837Z,83.61
2018-09-15T06:56:37.380Z,83.50
2018-09-15T06:59:07.278Z,83.09
2018-09-15T07:01:41.081Z,84.69
2018-09-15T07:04:12.485Z,84.24
2018-09-15T07:06:42.431Z,83.59
2018-09-15T07:09:13.295Z,85.35
2018-09-15T07:11:43.210Z,85.08
2018-09-15T07:14:12.727Z,85.99
2018-09-15T07:16:42.295Z,86.87
2018-09-15T07:19:12.107Z,86.69
2018-09-15T07:21:41.963Z,86.16
2018-09-15T07:24:12.825Z,85.06
2018-09-15T07:26:42.283Z,84.66
2018-09-15T07:29:12.840Z,84.58
2018-09-15T07:31:42.569Z,85.76
2018-09-15T07:34:12.263Z,85.34
2018-09-15T07:36:41.954Z,85.71
2018-09-15T07:39:12.302Z,85.13
2018-09-15T07:41:42.194Z,85.16
2018-09-15T07:44:11.721Z,84.88
2018-09-15T07:46:41.176Z,84.51
2018-09-15T07:49:10.392Z,84.88
2018-09-15T07:51:40.268Z,84.75
2018-09-15T07:54:10.171Z,83.49
2018-09-15T07:56:40.034Z,82.25
2018-09-15T07:59:10.813Z,80.91
2018-09-15T08:01:40.055Z,80.93
2018-09-15T08:04:09.833Z,80.95
2018-09-15T08:06:39.863Z,80.97
2018-09-15T08:09:10.142Z,79.86
2018-09-15T08:11:40.113Z,77.33
2018-09-15T08:14:10.622Z,75.84
2018-09-15T08:16:40.475Z,76.89
2018-09-15T08:19:11.813Z,76.67
2018-09-15T08:21:41.818Z,78.25
2018-09-15T08:24:11.612Z,79.91
2018-09-15T08:26:41.040Z,79.23
2018-09-15T08:29:10.982Z,78.58
2018-09-15T08:31:40.242Z,77.88
2018-09-15T08:34:10.197Z,77.16
2018-09-15T08:36:40.415Z,77.85
2018-09-15T08:39:11.318Z,76.14
2018-09-15T08:41:41.407Z,75.76
2018-09-15T08:44:10.863Z,75.98
2018-09-15T08:46:40.386Z,75.12
2018-09-15T08:49:11.886Z,74.92
2018-09-15T08:51:41.472Z,75.50
2018-09-15T08:54:10.930Z,78.43
2018-09-15T08:56:40.458Z,77.49
2018-09-15T08:59:10.401Z,77.84
2018-09-15T09:01:39.686Z,75.36
2018-09-15T09:04:09.154Z,75.64
2018-09-15T09:06:38.725Z,75.45
2018-09-15T09:09:10.555Z,75.74
2018-09-15T09:11:40.383Z,76.93
2018-09-15T09:14:10.126Z,75.91
2018-09-15T09:16:40.506Z,75.87
2018-09-15T09:19:10.102Z,77.08
2018-09-15T09:21:39.352Z,76.42
2018-09-15T09:24:09.106Z,76.14
2018-09-15T09:26:38.614Z,76.07
2018-09-15T09:29:08.894Z,76.96
2018-09-15T09:31:38.431Z,75.51
2018-09-15T09:34:07.938Z,74.08
2018-09-15T09:36:37.402Z,72.09
2018-09-15T09:39:10.283Z,71.65
2018-09-15T09:41:39.736Z,72.90
2018-09-15T09:44:09.868Z,72.69
2018-09-15T09:46:39.955Z,73.23
2018-09-15T09:49:09.571Z,72.80
2018-09-15T09:51:39.131Z,73.27
2018-09-15T09:54:08.689Z,73.56
2018-09-15T09:56:38.358Z,73.76
2018-09-15T09:59:08.218Z,73.87
2018-09-15T10:01:43.329Z,72.74
2018-09-15T10:04:13.654Z,72.15
2018-09-15T10:06:43.192Z,69.40
2018-09-15T10:09:12.779Z,70.06
2018-09-15T10:11:42.616Z,69.42
2018-09-15T10:14:12.150Z,67.96
2018-09-15T10:16:41.391Z,66.08
2018-09-15T10:19:10.895Z,65.69
2018-09-15T10:21:40.905Z,64.07
2018-09-15T10:24:10.086Z,64.71
2018-09-15T10:26:39.812Z,62.60
2018-09-15T10:29:09.387Z,62.35
2018-09-15T10:31:39.893Z,60.33
2018-09-15T10:34:09.766Z,59.50
2018-09-15T10:36:39.666Z,57.27
2018-09-15T10:39:10.473Z,55.16
2018-09-15T10:41:39.733Z,53.35
2018-09-15T10:44:09.399Z,51.02
2018-09-15T10:46:39.128Z,50.67
2018-09-15T10:49:09.275Z,50.08
2018-09-15T10:51:38.960Z,51.38
2018-09-15T10:54:08.497Z,51.61
2018-09-15T10:56:37.775Z,54.91
2018-09-15T10:59:07.329Z,54.90
2018-09-15T11:01:36.958Z,52.39
2018-09-15T11:04:06.620Z,54.32
2018-09-15T11:06:36.829Z,54.93
2018-09-15T11:09:09.383Z,56.39
2018-09-15T11:11:39.116Z,58.16
2018-09-15T11:14:08.406Z,58.07
2018-09-15T11:16:38.339Z,54.00
2018-09-15T11:19:08.611Z,48.67
2018-09-15T11:21:38.202Z,45.62
2018-09-15T11:24:07.810Z,45.78
2018-09-15T11:26:37.522Z,44.92
2018-09-15T11:29:07.485Z,45.08
2018-09-15T11:31:36.978Z,47.12
2018-09-15T11:34:06.513Z,45.32
2018-09-15T11:36:36.010Z,45.61
2018-09-15T11:39:09.217Z,44.39
2018-09-15T11:41:39.172Z,43.81
2018-09-15T11:44:09.089Z,45.84
2018-09-15T11:46:38.556Z,42.82
2018-09-15T11:49:08.222Z,42.16
2018-09-15T11:51:38.207Z,45.25
2018-09-15T11:54:09.770Z,48.35
2018-09-15T11:56:39.822Z,49.25
2018-09-15T11:59:09.338Z,52.09
2018-09-15T12:01:39.050Z,51.59
2018-09-15T12:04:08.536Z,52.14
2018-09-15T12:06:38.062Z,53.07
2018-09-15T12:09:08.954Z,50.66
2018-09-15T12:11:38.939Z,47.73
2018-09-15T12:14:09.312Z,46.48
2018-09-15T12:16:38.925Z,43.39
2018-09-15T12:19:08.693Z,41.01
2018-09-15T12:21:38.613Z,42.68
2018-09-15T12:24:08.124Z,44.56
2018-09-15T12:26:37.966Z,47.37
2018-09-15T12:29:07.491Z,48.78
2018-09-15T12:31:37.960Z,48.88
2018-09-15T12:34:07.739Z,49.01
2018-09-15T12:36:37.215Z,46.84
2018-09-15T12:39:08.511Z,46.32
2018-09-15T12:41:38.027Z,45.06
2018-09-15T12:44:07.823Z,44.97
2018-09-15T12:46:37.995Z,45.01
2018-09-15T12:49:08.111Z,44.73
2018-09-15T12:51:38.266Z,46.23
2018-09-15T12:54:08.150Z,45.94
2018-09-15T12:56:37.846Z,45.98
2018-09-15T12:59:07.894Z,46.59
2018-09-15T13:01:37.614Z,45.33
2018-09-15T13:04:07.109Z,43.26
2018-09-15T13:06:36.612Z,42.82
2018-09-15T13:09:10.629Z,41.59
2018-09-15T13:11:40.142Z,42.38
2018-09-15T13:14:10.207Z,42.59
2018-09-15T13:16:39.938Z,44.67
2018-09-15T13:19:10.512Z,44.08
2018-09-15T13:21:39.879Z,43.90
2018-09-15T13:24:09.447Z,44.37
2018-09-15T13:26:39.038Z,44.26
2018-09-15T13:29:08.689Z,45.08
2018-09-15T13:31:38.303Z,45.16
2018-09-15T13:34:08.602Z,44.64
2018-09-15T13:36:38.312Z,43.33
2018-09-15T13:39:10.463Z,44.41
2018-09-15T13:41:39.979Z,43.69
2018-09-15T13:44:09.811Z,43.86
2018-09-15T13:46:39.413Z,43.40
2018-09-15T13:49:09.423Z,43.94
2018-09-15T13:51:39.170Z,44.32
2018-09-15T13:54:09.050Z,43.67
2018-09-15T13:56:38.810Z,44.86
2018-09-15T13:59:08.885Z,45.06
2018-09-15T14:01:38.398Z,43.82
2018-09-15T14:04:08.318Z,44.41
2018-09-15T14:06:37.988Z,45.05
2018-09-15T14:09:10.493Z,45.59
2018-09-15T14:11:40.351Z,44.61
2018-09-15T14:14:10.088Z,45.16
2018-09-15T14:16:39.823Z,45.07
2018-09-15T14:19:09.507Z,45.85
2018-09-15T14:21:39.135Z,45.63
2018-09-15T14:24:08.700Z,45.15
2018-09-15T14:26:38.398Z,45.69
2018-09-15T14:29:08.351Z,45.41
2018-09-15T14:31:37.975Z,45.12
2018-09-15T14:34:07.250Z,45.73
2018-09-15T14:36:36.818Z,45.02
2018-09-15T14:39:09.215Z,44.16
2018-09-15T14:41:39.267Z,44.25
2018-09-15T14:44:08.847Z,43.52
2018-09-15T14:46:38.328Z,44.61
2018-09-15T14:49:07.838Z,45.22
2018-09-15T14:51:37.495Z,46.11
2018-09-15T14:54:07.014Z,44.98
2018-09-15T14:56:36.562Z,45.89
2018-09-15T14:59:07.127Z,45.71
2018-09-15T15:01:36.763Z,45.31
2018-09-15T15:04:07.150Z,45.63
2018-09-15T15:06:36.821Z,46.23
2018-09-15T15:09:08.118Z,46.34
2018-09-15T15:11:37.923Z,46.42
2018-09-15T15:14:08.290Z,46.58
2018-09-15T15:16:38.104Z,45.80
2018-09-15T15:19:08.283Z,46.66
2018-09-15T15:21:37.591Z,46.38
2018-09-15T15:24:07.447Z,46.81
2018-09-15T15:26:38.104Z,47.24
2018-09-15T15:29:08.215Z,47.82
2018-09-15T15:31:37.812Z,46.67
2018-09-15T15:34:07.296Z,46.88
2018-09-15T15:36:37.592Z,46.38
2018-09-15T15:39:08.782Z,47.56
2018-09-15T15:41:38.303Z,47.42
2018-09-15T15:44:07.955Z,48.34
2018-09-15T15:46:37.698Z,47.46
2018-09-15T15:49:07.607Z,47.77
2018-09-15T15:51:37.487Z,47.81
2018-09-15T15:54:06.795Z,47.82
2018-09-15T15:56:36.703Z,48.70
2018-09-15T15:59:06.257Z,48.41
2018-09-15T16:01:36.355Z,47.66
2018-09-15T16:04:06.554Z,49.15
2018-09-15T16:06:36.367Z,49.01
2018-09-15T16:09:08.229Z,49.26
2018-09-15T16:11:38.599Z,49.01
2018-09-15T16:14:08.642Z,48.43
2018-09-15T16:16:38.076Z,49.40
2018-09-15T16:19:07.620Z,48.77
2018-09-15T16:21:37.018Z,49.20
2018-09-15T16:24:07.906Z,49.00
2018-09-15T16:26:38.282Z,49.25
2018-09-15T16:29:08.139Z,48.67
2018-09-15T16:31:37.647Z,48.83
2018-09-15T16:34:07.690Z,49.19
2018-09-15T16:36:37.947Z,48.15
2018-09-15T16:39:10.854Z,49.19
2018-09-15T16:41:41.118Z,48.59
2018-09-15T16:44:10.680Z,48.81
2018-09-15T16:46:40.736Z,49.24
2018-09-15T16:49:10.885Z,49.35
2018-09-15T16:51:40.343Z,49.14
2018-09-15T16:54:10.012Z,49.20
2018-09-15T16:56:39.719Z,50.40
2018-09-15T16:59:08.954Z,51.14
2018-09-15T17:01:38.840Z,51.66
2018-09-15T17:04:08.574Z,51.70
2018-09-15T17:06:38.243Z,52.09
2018-09-15T17:09:10.319Z,52.58
2018-09-15T17:11:39.903Z,52.29
2018-09-15T17:14:09.438Z,52.57
2018-09-15T17:16:40.113Z,52.74
2018-09-15T17:19:09.643Z,53.11
2018-09-15T17:21:39.151Z,53.88
2018-09-15T17:24:09.368Z,54.27
2018-09-15T17:26:39.854Z,54.97
2018-09-15T17:29:09.478Z,55.77
2018-09-15T17:31:39.274Z,55.95
2018-09-15T17:34:08.726Z,56.46
2018-09-15T17:36:40.010Z,56.66
2018-09-15T17:39:11.376Z,57.43
2018-09-15T17:41:41.127Z,57.35
2018-09-15T17:44:11.026Z,58.06
2018-09-15T17:46:41.146Z,58.76
2018-09-15T17:49:10.645Z,59.31
2018-09-15T17:51:40.568Z,59.51
2018-09-15T17:54:10.063Z,60.16
2018-09-15T17:56:40.017Z,60.12
2018-09-15T17:59:09.666Z,60.92
2018-09-15T18:01:39.635Z,61.64
2018-09-15T18:04:08.879Z,62.02
2018-09-15T18:06:38.316Z,62.87
2018-09-15T18:09:08.451Z,64.19
2018-09-15T18:11:37.702Z,63.84
2018-09-15T18:14:07.199Z,64.47
2018-09-15T18:16:36.742Z,65.32
2018-09-15T18:19:06.143Z,65.96
2018-09-15T18:21:35.829Z,67.06
2018-09-15T18:24:05.578Z,68.17
2018-09-15T18:26:34.882Z,67.59
2018-09-15T18:29:04.758Z,68.51
2018-09-15T18:31:35.123Z,69.43
2018-09-15T18:34:04.612Z,69.01
2018-09-15T18:36:34.215Z,70.20
2018-09-15T18:39:04.236Z,70.16
2018-09-15T18:41:33.809Z,71.34
2018-09-15T18:44:03.298Z,69.64
2018-09-15T18:46:32.925Z,69.70
2018-09-15T18:49:02.795Z,71.09
2018-09-15T18:51:32.013Z,71.77
2018-09-15T18:54:01.629Z,71.57
2018-09-15T18:56:31.227Z,72.23
2018-09-15T18:59:00.745Z,71.71
2018-09-15T19:01:30.694Z,72.06
2018-09-15T19:03:59.943Z,72.25
2018-09-15T19:06:30.422Z,72.92
2018-09-15T19:09:00.175Z,73.33
2018-09-15T19:11:30.017Z,73.36
2018-09-15T19:14:00.316Z,73.63
2018-09-15T19:16:29.749Z,74.49
2018-09-15T19:18:59.195Z,74.51
2018-09-15T19:21:28.923Z,73.64
2018-09-15T19:23:58.783Z,74.01
2018-09-15T19:26:28.608Z,75.43
2018-09-15T19:28:58.332Z,74.80
2018-09-15T19:31:27.771Z,74.62
2018-09-15T19:33:58.247Z,74.27
2018-09-15T19:36:27.823Z,74.57
2018-09-15T19:38:57.321Z,73.82
2018-09-15T19:41:27.098Z,74.66
2018-09-15T19:43:56.715Z,74.46
2018-09-15T19:46:26.415Z,75.00
2018-09-15T19:48:55.943Z,75.80
2018-09-15T19:51:25.680Z,75.83
2018-09-15T19:53:55.554Z,76.04
2018-09-15T19:56:25.034Z,76.68
2018-09-15T19:58:54.536Z,77.21
2018-09-15T20:01:24.198Z,76.64
2018-09-15T20:03:53.787Z,76.35
2018-09-15T20:06:23.078Z,77.15
2018-09-15T20:08:52.708Z,76.87
2018-09-15T20:11:23.533Z,76.68
2018-09-15T20:13:53.247Z,76.50
2018-09-15T20:16:21.481Z,76.43
2018-09-15T20:18:50.467Z,77.17
2018-09-15T20:21:18.583Z,76.66
2018-09-15T20:23:48.402Z,77.46
2018-09-15T20:26:17.903Z,77.56
2018-09-15T20:28:47.396Z,78.27
2018-09-15T20:31:17.553Z,78.27
2018-09-15T20:33:47.374Z,79.00
2018-09-15T20:36:16.950Z,79.72
2018-09-15T20:38:46.423Z,80.44
2018-09-15T20:41:16.112Z,79.98
2018-09-15T20:43:46.470Z,80.32
2018-09-15T20:46:16.360Z,81.20
2018-09-15T20:48:46.687Z,81.08
2018-09-15T20:51:16.154Z,80.72
2018-09-15T20:53:46.331Z,81.01
2018-09-15T20:56:15.797Z,80.78
2018-09-15T20:58:45.763Z,81.21
2018-09-15T21:01:15.286Z,81.91
2018-09-15T21:03:45.164Z,81.82
2018-09-15T21:06:15.213Z,82.43
2018-09-15T21:08:44.995Z,83.01
2018-09-15T21:11:14.719Z,82.31
2018-09-15T21:13:44.227Z,82.26
2018-09-15T21:16:13.730Z,81.60
2018-09-15T21:18:43.494Z,82.61
2018-09-15T21:21:12.782Z,82.71
2018-09-15T21:23:42.503Z,83.92
2018-09-15T21:26:11.961Z,85.26
2018-09-15T21:28:41.436Z,85.69
2018-09-15T21:31:10.910Z,86.67
2018-09-15T21:33:40.927Z,86.60
2018-09-15T21:36:10.774Z,86.39
2018-09-15T21:38:40.279Z,86.25
2018-09-15T21:41:09.637Z,86.74
2018-09-15T21:43:39.080Z,86.31
2018-09-15T21:46:08.603Z,86.98
2018-09-15T21:48:38.104Z,87.19
2018-09-15T21:51:07.515Z,86.79
2018-09-15T21:53:37.293Z,87.32
2018-09-15T21:56:07.226Z,87.76
2018-09-15T21:58:36.905Z,88.41
2018-09-15T22:01:07.087Z,89.27
2018-09-15T22:03:42.214Z,89.39
2018-09-15T22:06:12.431Z,89.27
2018-09-15T22:08:41.701Z,89.53
2018-09-15T22:11:11.225Z,88.97
2018-09-15T22:13:40.739Z,89.02
2018-09-15T22:16:10.242Z,89.08
2018-09-15T22:18:39.910Z,89.57
2018-09-15T22:21:09.721Z,89.87
2018-09-15T22:23:39.123Z,89.92
2018-09-15T22:26:08.719Z,90.15
2018-09-15T22:28:38.591Z,90.27
2018-09-15T22:31:07.866Z,90.50
2018-09-15T22:33:37.354Z,90.86
2018-09-15T22:36:07.028Z,90.46
2018-09-15T22:38:36.567Z,90.27
2018-09-15T22:41:06.521Z,90.49
2018-09-15T22:43:36.522Z,89.85
2018-09-15T22:46:06.784Z,90.02
2018-09-15T22:48:36.697Z,90.32
2018-09-15T22:51:07.447Z,90.45
2018-09-15T22:53:36.874Z,91.08
2018-09-15T22:56:06.804Z,90.97
2018-09-15T22:58:36.521Z,90.81
2018-09-15T23:01:06.607Z,90.94
2018-09-15T23:03:36.107Z,90.08
2018-09-15T23:06:06.126Z,90.22
2018-09-15T23:08:36.409Z,90.35
2018-09-15T23:11:06.772Z,90.80
2018-09-15T23:13:36.747Z,90.50
2018-09-15T23:16:06.546Z,90.69
2018-09-15T23:18:36.247Z,90.21
2018-09-15T23:21:06.286Z,90.67
2018-09-15T23:23:35.701Z,90.44
2018-09-15T23:26:05.318Z,90.30
2018-09-15T23:28:35.291Z,91.06
2018-09-15T23:31:05.399Z,90.68
2018-09-15T23:33:34.926Z,90.42
2018-09-15T23:36:04.430Z,91.28
2018-09-15T23:38:33.911Z,91.49
2018-09-15T23:41:03.620Z,91.75
2018-09-15T23:43:33.191Z,91.91
2018-09-15T23:46:03.029Z,91.58
2018-09-15T23:48:32.570Z,92.04
2018-09-15T23:51:02.050Z,92.61
2018-09-15T23:53:31.596Z,92.56
2018-09-15T23:56:01.017Z,92.66
2018-09-15T23:58:30.578Z,93.06
